createdAt,value
2022-08-07T00:00:42.650Z,98494.66
2022-08-07T00:03:15.844Z,98485.34
2022-08-07T00:05:50.751Z,98487.56
2022-08-07T00:08:25.431Z,98494.94
2022-08-07T00:10:58.954Z,98494.72
2022-08-07T00:13:32.167Z,98498.53
2022-08-07T00:16:07.533Z,98495.53
2022-08-07T00:18:40.873Z,98493.03
2022-08-07T00:21:55.946Z,98494.06
2022-08-07T00:24:10.394Z,98495.66
2022-08-07T00:26:49.296Z,98492.84
2022-08-07T00:29:32.945Z,98480.63
2022-08-07T00:32:07.512Z,98477.88
2022-08-07T00:34:41.593Z,98484.09
2022-08-07T00:37:14.823Z,98490.94
2022-08-07T00:39:54.632Z,98487.78
2022-08-07T00:42:29.201Z,98484.19
2022-08-07T00:45:07.051Z,98491.91
2022-08-07T00:48:10.406Z,98490.38
2022-08-07T00:50:50.670Z,98500.97
2022-08-07T00:53:24.843Z,98494.34
2022-08-07T00:56:02.528Z,98498.31
2022-08-07T00:58:37.307Z,98496.25
2022-08-07T01:01:11.219Z,98504.22
2022-08-07T01:03:55.674Z,98496.63
2022-08-07T01:06:33.164Z,98497.13
2022-08-07T01:09:07.044Z,98497.28
2022-08-07T01:12:23.969Z,98493.44
2022-08-07T01:14:37.025Z,98488.72
2022-08-07T01:17:11.146Z,98491.16
2022-08-07T01:19:54.226Z,98495.53
2022-08-07T01:22:29.693Z,98494.06
2022-08-07T01:25:39.912Z,98478.91
2022-08-07T01:27:57.503Z,98476.19
2022-08-07T01:30:33.626Z,98479.69
2022-08-07T01:33:06.943Z,98479.03
2022-08-07T01:35:54.096Z,98480.06
2022-08-07T01:38:30.287Z,98476.53
2022-08-07T01:43:52.731Z,98479.31
2022-08-07T01:46:27.906Z,98480.66
2022-08-07T01:49:04.523Z,98480.78
2022-08-07T01:52:02.735Z,98486.25
2022-08-07T01:54:36.835Z,98482.78
2022-08-07T01:57:24.518Z,98481.09
2022-08-07T02:00:12.953Z,98478.00
2022-08-07T02:03:18.580Z,98477.13
2022-08-07T02:05:59.622Z,98480.34
2022-08-07T02:08:40.461Z,98471.91
2022-08-07T02:11:31.059Z,98469.63
2022-08-07T02:14:10.191Z,98476.38
2022-08-07T02:17:06.046Z,98468.88
2022-08-07T02:20:07.241Z,98468.41
2022-08-07T02:22:38.371Z,98464.09
2022-08-07T02:25:21.490Z,98459.13
2022-08-07T02:28:24.724Z,98469.56
2022-08-07T02:31:18.754Z,98461.25
2022-08-07T02:34:03.135Z,98473.94
2022-08-07T02:36:39.496Z,98462.38
2022-08-07T02:39:17.342Z,98464.22
2022-08-07T02:42:14.779Z,98466.22
2022-08-07T02:44:53.619Z,98462.66
2022-08-07T02:47:26.833Z,98462.09
2022-08-07T02:50:10.730Z,98462.38
2022-08-07T02:52:54.676Z,98464.78
2022-08-07T02:56:03.153Z,98464.72
2022-08-07T02:58:39.801Z,98457.22
2022-08-07T03:01:35.604Z,98462.66
2022-08-07T03:04:13.904Z,98466.97
2022-08-07T03:06:49.901Z,98467.03
2022-08-07T03:09:41.864Z,98457.91
2022-08-07T03:12:22.357Z,98464.25
2022-08-07T03:15:07.826Z,98460.84
2022-08-07T03:17:54.028Z,98457.50
2022-08-07T03:20:28.246Z,98461.72
2022-08-07T03:23:04.264Z,98459.41
2022-08-07T03:25:42.182Z,98459.50
2022-08-07T03:28:37.247Z,98459.41
2022-08-07T03:31:24.358Z,98466.97
2022-08-07T03:34:01.147Z,98461.09
2022-08-07T03:36:35.952Z,98467.94
2022-08-07T03:39:14.681Z,98461.81
2022-08-07T03:41:50.907Z,98465.78
2022-08-07T03:44:31.826Z,98464.00
2022-08-07T03:47:14.007Z,98460.16
2022-08-07T03:49:52.266Z,98460.47
2022-08-07T03:52:29.815Z,98459.06
2022-08-07T03:55:07.862Z,98453.41
2022-08-07T03:58:34.612Z,98444.66
2022-08-07T04:00:37.580Z,98448.91
2022-08-07T04:03:19.779Z,98448.00
2022-08-07T04:05:58.793Z,98454.84
2022-08-07T04:08:33.103Z,98462.72
2022-08-07T04:12:27.984Z,98450.91
2022-08-07T04:14:10.726Z,98464.00
2022-08-07T04:16:58.111Z,98459.34
2022-08-07T04:19:51.222Z,98461.03
2022-08-07T04:22:27.370Z,98464.97
2022-08-07T04:25:02.785Z,98467.56
2022-08-07T04:27:43.996Z,98478.81
2022-08-07T04:30:21.005Z,98470.72
2022-08-07T04:32:58.035Z,98483.78
2022-08-07T04:35:35.107Z,98480.50
2022-08-07T04:38:11.414Z,98475.44
2022-08-07T04:40:52.057Z,98481.34
2022-08-07T04:44:13.090Z,98485.22
2022-08-07T04:46:59.237Z,98482.50
2022-08-07T04:49:47.372Z,98487.63
2022-08-07T04:52:51.221Z,98484.41
2022-08-07T04:58:11.765Z,98488.59
2022-08-07T04:59:01.605Z,98481.28
2022-08-07T05:01:40.504Z,98485.56
2022-08-07T05:04:20.174Z,98491.88
2022-08-07T05:07:01.370Z,98484.97
2022-08-07T05:10:01.862Z,98488.31
2022-08-07T05:12:46.592Z,98487.25
2022-08-07T05:15:35.357Z,98484.31
2022-08-07T05:18:15.389Z,98490.97
2022-08-07T05:20:54.775Z,98487.72
2022-08-07T05:23:35.990Z,98486.31
2022-08-07T05:26:23.791Z,98487.22
2022-08-07T05:29:04.263Z,98488.28
2022-08-07T05:31:47.579Z,98485.97
2022-08-07T05:34:27.608Z,98478.72
2022-08-07T05:37:00.912Z,98488.00
2022-08-07T05:40:06.571Z,98484.78
2022-08-07T05:42:34.834Z,98482.31
2022-08-07T05:45:11.914Z,98483.31
2022-08-07T05:48:03.029Z,98497.41
2022-08-07T05:50:39.476Z,98503.41
2022-08-07T05:54:09.402Z,98502.13
2022-08-07T05:56:13.839Z,98493.38
2022-08-07T05:58:52.869Z,98492.66
2022-08-07T06:01:35.635Z,98500.06
2022-08-07T06:04:11.638Z,98492.72
2022-08-07T06:06:56.510Z,98496.16
2022-08-07T06:10:03.801Z,98493.25
2022-08-07T06:12:33.155Z,98505.38
2022-08-07T06:15:08.986Z,98496.25
2022-08-07T06:17:53.684Z,98494.31
2022-08-07T06:20:49.421Z,98493.59
2022-08-07T06:23:45.781Z,98492.38
2022-08-07T06:26:17.371Z,98491.53
2022-08-07T06:28:53.007Z,98488.59
2022-08-07T06:31:46.962Z,98484.78
2022-08-07T06:34:20.831Z,98490.41
2022-08-07T06:36:56.529Z,98485.25
2022-08-07T06:40:17.916Z,98490.41
2022-08-07T06:42:35.073Z,98482.84
2022-08-07T06:45:18.031Z,98472.84
2022-08-07T06:47:58.399Z,98478.22
2022-08-07T06:50:36.100Z,98471.31
2022-08-07T06:53:18.796Z,98484.38
2022-08-07T06:56:07.501Z,98480.19
2022-08-07T07:00:13.123Z,98481.00
2022-08-07T07:01:50.698Z,98478.19
2022-08-07T07:04:32.941Z,98475.03
2022-08-07T07:07:10.468Z,98469.56
2022-08-07T07:09:53.600Z,98478.53
2022-08-07T07:12:41.854Z,98471.53
2022-08-07T07:15:35.778Z,98464.56
2022-08-07T07:18:33.102Z,98475.91
2022-08-07T07:21:19.720Z,98476.81
2022-08-07T07:24:06.231Z,98485.63
2022-08-07T07:26:49.664Z,98476.94
2022-08-07T07:29:56.781Z,98473.38
2022-08-07T07:32:24.743Z,98474.28
2022-08-07T07:35:01.921Z,98469.91
2022-08-07T07:37:49.513Z,98467.28
2022-08-07T07:40:31.011Z,98463.75
2022-08-07T07:43:15.107Z,98465.50
2022-08-07T07:46:40.289Z,98451.50
2022-08-07T07:48:47.844Z,98448.88
2022-08-07T07:51:24.158Z,98453.97
2022-08-07T07:53:59.182Z,98457.44
2022-08-07T07:56:35.447Z,98445.38
2022-08-07T07:59:11.393Z,98448.06
2022-08-07T08:02:02.467Z,98448.91
2022-08-07T08:04:38.946Z,98451.47
2022-08-07T08:07:20.218Z,98436.34
2022-08-07T08:10:05.026Z,98432.13
2022-08-07T08:12:59.098Z,98444.44
2022-08-07T08:15:57.763Z,98444.53
2022-08-07T08:18:33.864Z,98439.22
2022-08-07T08:22:00.427Z,98441.84
2022-08-07T08:24:44.782Z,98427.91
2022-08-07T08:27:21.404Z,98430.53
2022-08-07T08:29:59.331Z,98426.84
2022-08-07T08:32:48.432Z,98429.47
2022-08-07T08:35:28.843Z,98425.09
2022-08-07T08:38:15.058Z,98426.72
2022-08-07T08:40:57.482Z,98427.69
2022-08-07T08:43:42.948Z,98415.47
2022-08-07T08:46:40.551Z,98421.75
2022-08-07T08:49:33.525Z,98425.25
2022-08-07T08:52:30.385Z,98421.78
2022-08-07T08:55:54.394Z,98429.59
2022-08-07T08:58:28.301Z,98422.56
2022-08-07T09:01:15.352Z,98420.00
2022-08-07T09:04:00.212Z,98426.09
2022-08-07T09:06:48.202Z,98419.09
2022-08-07T09:09:48.259Z,98419.88
2022-08-07T09:12:53.250Z,98426.91
2022-08-07T09:16:22.308Z,98419.03
2022-08-07T09:19:44.814Z,98418.00
2022-08-07T09:24:33.193Z,98426.50
2022-08-07T09:25:54.315Z,98437.94
2022-08-07T09:30:01.306Z,98431.97
2022-08-07T09:31:39.943Z,98426.66
2022-08-07T09:34:27.383Z,98430.22
2022-08-07T09:37:07.443Z,98427.63
2022-08-07T09:39:53.953Z,98431.00
2022-08-07T09:42:45.467Z,98432.00
2022-08-07T09:47:24.875Z,98430.91
2022-08-07T09:48:55.888Z,98429.22
2022-08-07T09:52:10.755Z,98430.56
2022-08-07T09:54:45.366Z,98427.28
2022-08-07T09:57:54.013Z,98421.22
2022-08-07T10:00:34.233Z,98410.94
2022-08-07T10:04:06.979Z,98405.69
2022-08-07T10:07:24.154Z,98414.50
2022-08-07T10:11:07.706Z,98385.75
2022-08-07T10:13:54.861Z,98397.94
2022-08-07T10:16:59.578Z,98398.75
2022-08-07T10:20:12.821Z,98395.81
2022-08-07T10:23:07.566Z,98402.94
2022-08-07T10:25:59.147Z,98386.50
2022-08-07T10:29:00.034Z,98388.94
2022-08-07T10:32:37.156Z,98374.25
2022-08-07T10:35:25.569Z,98376.13
2022-08-07T10:38:15.926Z,98381.44
2022-08-07T10:41:08.674Z,98371.00
2022-08-07T10:44:07.609Z,98377.00
2022-08-07T10:46:50.451Z,98365.59
2022-08-07T10:49:49.325Z,98366.53
2022-08-07T10:52:34.276Z,98370.03
2022-08-07T10:55:26.732Z,98365.69
2022-08-07T10:58:33.278Z,98349.91
2022-08-07T11:01:51.080Z,98351.66
2022-08-07T11:04:40.969Z,98351.78
2022-08-07T11:07:59.645Z,98345.59
2022-08-07T11:10:42.176Z,98342.09
2022-08-07T11:14:44.239Z,98337.81
2022-08-07T11:16:30.542Z,98329.94
2022-08-07T11:19:11.391Z,98328.16
2022-08-07T11:21:55.655Z,98334.28
2022-08-07T11:24:45.518Z,98322.00
2022-08-07T11:28:01.726Z,98323.78
2022-08-07T11:30:42.027Z,98322.88
2022-08-07T11:33:54.048Z,98325.56
2022-08-07T11:36:42.037Z,98313.28
2022-08-07T11:39:58.970Z,98307.13
2022-08-07T11:42:35.822Z,98307.09
2022-08-07T11:45:35.406Z,98300.06
2022-08-07T11:48:40.523Z,98306.16
2022-08-07T11:51:41.422Z,98312.28
2022-08-07T11:54:40.043Z,98297.44
2022-08-07T11:57:57.800Z,98303.59
2022-08-07T12:00:20.165Z,98303.63
2022-08-07T12:03:54.904Z,98301.97
2022-08-07T12:06:51.780Z,98299.31
2022-08-07T12:09:38.967Z,98297.56
2022-08-07T12:12:19.594Z,98294.94
2022-08-07T12:15:05.136Z,98287.94
2022-08-07T12:17:59.333Z,98277.47
2022-08-07T12:20:46.332Z,98281.84
2022-08-07T12:24:07.575Z,98283.59
2022-08-07T12:26:46.728Z,98282.69
2022-08-07T12:29:37.826Z,98280.09
2022-08-07T12:32:20.788Z,98279.19
2022-08-07T12:34:56.194Z,98274.81
2022-08-07T12:38:09.623Z,98268.72
2022-08-07T12:40:47.129Z,98271.38
2022-08-07T12:44:03.700Z,98264.34
2022-08-07T12:46:34.489Z,98259.09
2022-08-07T12:49:40.138Z,98253.00
2022-08-07T12:52:19.185Z,98252.97
2022-08-07T12:55:05.676Z,98255.59
2022-08-07T12:58:00.738Z,98260.84
2022-08-07T13:00:50.303Z,98270.44
2022-08-07T13:04:04.698Z,98257.34
2022-08-07T13:07:00.910Z,98252.13
2022-08-07T13:10:21.890Z,98247.75
2022-08-07T13:13:48.247Z,98240.72
2022-08-07T13:16:17.648Z,98240.72
2022-08-07T13:19:01.114Z,98235.47
2022-08-07T13:21:55.026Z,98231.91
2022-08-07T13:24:43.800Z,98232.78
2022-08-07T13:28:10.989Z,98226.66
2022-08-07T13:30:39.913Z,98221.38
2022-08-07T13:34:34.653Z,98227.47
2022-08-07T13:36:26.085Z,98218.78
2022-08-07T13:39:12.946Z,98219.66
2022-08-07T13:42:03.114Z,98215.28
2022-08-07T13:44:40.634Z,98218.81
2022-08-07T13:47:25.241Z,98225.81
2022-08-07T13:50:33.288Z,98225.84
2022-08-07T13:52:57.692Z,98211.00
2022-08-07T13:55:34.006Z,98209.25
2022-08-07T13:58:31.542Z,98212.72
2022-08-07T14:01:14.891Z,98214.53
2022-08-07T14:04:05.350Z,98205.78
2022-08-07T14:06:44.830Z,98202.25
2022-08-07T14:10:01.509Z,98205.78
2022-08-07T14:12:27.324Z,98197.06
2022-08-07T14:15:07.225Z,98191.78
2022-08-07T14:18:15.710Z,98191.81
2022-08-07T14:20:48.708Z,98183.91
2022-08-07T14:23:31.735Z,98182.19
2022-08-07T14:26:29.925Z,98184.78
2022-08-07T14:30:02.965Z,98177.75
2022-08-07T14:32:03.095Z,98177.78
2022-08-07T14:34:46.442Z,98178.63
2022-08-07T14:37:39.267Z,98169.88
2022-08-07T14:40:27.049Z,98170.75
2022-08-07T14:43:57.782Z,98166.41
2022-08-07T14:46:01.946Z,98162.00
2022-08-07T14:48:39.462Z,98161.09
2022-08-07T14:51:20.317Z,98164.63
2022-08-07T14:56:50.846Z,98168.09
2022-08-07T15:02:31.877Z,98160.22
2022-08-07T15:05:20.303Z,98152.38
2022-08-07T15:07:59.403Z,98153.31
2022-08-07T15:10:33.884Z,98155.94
2022-08-07T15:13:16.962Z,98160.28
2022-08-07T15:15:54.696Z,98161.09
2022-08-07T15:18:36.649Z,98157.63
2022-08-07T15:21:44.205Z,98154.97
2022-08-07T15:27:18.207Z,98146.28
2022-08-07T15:30:04.602Z,98147.97
2022-08-07T15:33:01.636Z,98141.78
2022-08-07T15:36:00.493Z,98142.69
2022-08-07T15:38:51.844Z,98135.66
2022-08-07T15:44:28.507Z,98125.13
2022-08-07T15:50:06.686Z,98126.00
2022-08-07T15:52:41.541Z,98126.00
2022-08-07T15:55:21.098Z,98121.63
2022-08-07T15:58:00.453Z,98123.34
2022-08-07T16:00:39.776Z,98114.56
2022-08-07T16:03:22.042Z,98118.13
2022-08-07T16:06:13.928Z,98117.31
2022-08-07T16:08:49.685Z,98107.66
2022-08-07T16:11:41.886Z,98114.66
2022-08-07T16:14:28.583Z,98112.94
2022-08-07T16:18:02.215Z,98111.19
2022-08-07T16:20:43.710Z,98102.53
2022-08-07T16:23:55.082Z,98101.66
2022-08-07T16:26:59.527Z,98104.28
2022-08-07T16:30:10.898Z,98102.50
2022-08-07T16:34:02.826Z,98099.88
2022-08-07T16:36:20.598Z,98103.38
2022-08-07T16:39:40.627Z,98101.66
2022-08-07T16:42:44.486Z,98109.56
2022-08-07T16:46:40.441Z,98107.84
2022-08-07T16:50:20.625Z,98114.88
2022-08-07T16:52:52.574Z,98110.50
2022-08-07T16:55:47.364Z,98113.13
2022-08-07T16:58:47.964Z,98111.41
2022-08-07T17:01:40.950Z,98102.63
2022-08-07T17:04:32.123Z,98104.41
2022-08-07T17:07:28.458Z,98100.94
2022-08-07T17:10:33.301Z,98100.06
2022-08-07T17:13:40.315Z,98103.56
2022-08-07T17:16:45.901Z,98105.31
2022-08-07T17:20:01.914Z,98116.66
2022-08-07T17:22:39.086Z,98108.81
2022-08-07T17:25:47.241Z,98111.44
2022-08-07T17:28:19.647Z,98114.94
2022-08-07T17:31:16.451Z,98111.44
2022-08-07T17:34:15.002Z,98119.31
2022-08-07T17:37:14.242Z,98125.34
2022-08-07T17:40:07.867Z,98125.38
2022-08-07T17:42:59.331Z,98124.50
2022-08-07T17:45:39.531Z,98127.09
2022-08-07T17:48:31.168Z,98125.34
2022-08-07T17:51:21.388Z,98127.09
2022-08-07T17:54:06.383Z,98125.31
2022-08-07T17:56:49.455Z,98122.69
2022-08-07T17:59:35.415Z,98127.03
2022-08-07T18:02:15.330Z,98129.66
2022-08-07T18:04:56.971Z,98130.47
2022-08-07T18:07:43.882Z,98130.41
2022-08-07T18:10:31.981Z,98136.50
2022-08-07T18:13:16.549Z,98128.63
2022-08-07T18:16:03.121Z,98130.34
2022-08-07T18:21:07.391Z,98139.00
2022-08-07T18:21:53.420Z,98147.75
2022-08-07T18:24:43.678Z,98146.81
2022-08-07T18:27:38.378Z,98140.66
2022-08-07T18:30:31.468Z,98147.59
2022-08-07T18:33:38.838Z,98164.06
2022-08-07T18:36:44.162Z,98167.47
2022-08-07T18:40:06.871Z,98168.28
2022-08-07T18:42:59.087Z,98169.94
2022-08-07T18:46:25.245Z,98169.84
2022-08-07T18:50:05.866Z,98188.03
2022-08-07T18:52:33.483Z,98187.94
2022-08-07T18:54:52.978Z,98192.22
2022-08-07T18:57:58.554Z,98193.81
2022-08-07T19:00:56.583Z,98203.25
2022-08-07T19:03:49.683Z,98210.91
2022-08-07T19:06:38.017Z,98215.13
2022-08-07T19:09:55.488Z,98221.91
2022-08-07T19:12:26.531Z,98221.66
2022-08-07T19:16:02.208Z,98229.34
2022-08-07T19:18:18.945Z,98229.97
2022-08-07T19:21:47.621Z,98236.00
2022-08-07T19:24:30.691Z,98247.97
2022-08-07T19:28:29.620Z,98249.53
2022-08-07T19:31:03.913Z,98255.47
2022-08-07T19:33:10.343Z,98254.41
2022-08-07T19:35:57.970Z,98257.66
2022-08-07T19:38:35.308Z,98262.72
2022-08-07T19:41:38.982Z,98266.19
2022-08-07T19:44:26.452Z,98270.03
2022-08-07T19:47:10.780Z,98266.34
2022-08-07T19:49:58.602Z,98267.91
2022-08-07T19:52:37.398Z,98272.19
2022-08-07T19:55:20.421Z,98267.75
2022-08-07T19:58:13.545Z,98267.22
2022-08-07T20:00:53.942Z,98260.09
2022-08-07T20:03:35.591Z,98271.31
2022-08-07T20:06:15.254Z,98274.28
2022-08-07T20:09:03.159Z,98269.41
2022-08-07T20:12:21.966Z,98266.75
2022-08-07T20:14:54.197Z,98266.69
2022-08-07T20:17:38.550Z,98259.69
2022-08-07T20:20:15.296Z,98260.22
2022-08-07T20:22:49.403Z,98259.38
2022-08-07T20:25:25.490Z,98255.56
2022-08-07T20:28:05.596Z,98257.25
2022-08-07T20:30:46.857Z,98261.28
2022-08-07T20:33:36.325Z,98256.91
2022-08-07T20:36:17.111Z,98252.56
2022-08-07T20:39:00.629Z,98254.97
2022-08-07T20:41:51.672Z,98256.44
2022-08-07T20:44:32.376Z,98252.81
2022-08-07T20:47:09.498Z,98250.13
2022-08-07T20:49:58.311Z,98257.53
2022-08-07T20:52:51.354Z,98255.53
2022-08-07T20:55:25.875Z,98257.09
2022-08-07T20:58:03.956Z,98246.63
2022-08-07T21:00:52.173Z,98249.88
2022-08-07T21:03:26.892Z,98250.38
2022-08-07T21:06:21.823Z,98251.13
2022-08-07T21:09:12.890Z,98256.22
2022-08-07T21:11:52.868Z,98247.53
2022-08-07T21:14:34.825Z,98249.09
2022-08-07T21:18:02.307Z,98254.84
2022-08-07T21:20:09.787Z,98256.38
2022-08-07T21:22:53.279Z,98251.78
2022-08-07T21:25:56.498Z,98250.72
2022-08-07T21:28:49.529Z,98249.50
2022-08-07T21:32:42.439Z,98251.16
2022-08-07T21:34:46.162Z,98252.81
2022-08-07T21:37:57.174Z,98249.16
2022-08-07T21:40:38.969Z,98248.88
2022-08-07T21:43:22.835Z,98249.53
2022-08-07T21:46:09.745Z,98256.34
2022-08-07T21:48:57.434Z,98257.78
2022-08-07T21:51:50.932Z,98268.47
2022-08-07T21:54:48.500Z,98276.13
2022-08-07T21:57:51.939Z,98269.78
2022-08-07T22:00:26.346Z,98267.94
2022-08-07T22:03:10.224Z,98272.28
2022-08-07T22:05:56.779Z,98272.53
2022-08-07T22:08:43.504Z,98275.16
2022-08-07T22:11:19.664Z,98284.53
2022-08-07T22:13:57.383Z,98280.91
2022-08-07T22:16:43.937Z,98285.75
2022-08-07T22:19:29.743Z,98281.88
2022-08-07T22:22:17.691Z,98273.91
2022-08-07T22:25:10.892Z,98278.78
2022-08-07T22:28:08.435Z,98281.91
2022-08-07T22:30:58.546Z,98286.19
2022-08-07T22:33:56.437Z,98279.81
2022-08-07T22:36:46.442Z,98284.16
2022-08-07T22:39:28.707Z,98275.47
2022-08-07T22:42:19.782Z,98277.25
2022-08-07T22:44:59.730Z,98282.97
2022-08-07T22:48:31.493Z,98285.34
2022-08-07T22:51:36.804Z,98290.50
2022-08-07T22:54:35.050Z,98290.63
2022-08-07T22:57:30.330Z,98289.09
2022-08-07T23:00:16.052Z,98287.56
2022-08-07T23:03:19.565Z,98282.66
2022-08-07T23:06:23.853Z,98280.69
2022-08-07T23:10:05.112Z,98281.66
2022-08-07T23:12:34.657Z,98286.19
2022-08-07T23:16:04.253Z,98286.06
2022-08-07T23:18:32.200Z,98289.44
2022-08-07T23:21:30.267Z,98289.56
2022-08-07T23:24:29.055Z,98283.81
2022-08-07T23:27:33.313Z,98295.63
2022-08-07T23:30:38.838Z,98302.38
2022-08-07T23:34:33.817Z,98294.88
2022-08-07T23:36:35.134Z,98298.38
2022-08-07T23:39:21.935Z,98296.88
2022-08-07T23:42:15.613Z,98297.09
2022-08-07T23:45:33.132Z,98288.59
2022-08-07T23:48:34.703Z,98295.38
2022-08-07T23:52:58.189Z,98287.50
2022-08-07T23:54:20.081Z,98282.28
2022-08-07T23:57:18.597Z,98288.19
